sensor_id;sensor_type;location;lat;lon;timestamp;pressure;altitude;pressure_sealevel;temperature;humidity
70304;BME280;57712;48.752;11.348;2023-06-04T00:01:09;97539.25;;;13.76;92.04
70304;BME280;57712;48.752;11.348;2023-06-04T00:03:42;97537.38;;;13.73;92.67
70304;BME280;57712;48.752;11.348;2023-06-04T00:06:09;97540.13;;;13.73;88.73
70304;BME280;57712;48.752;11.348;2023-06-04T00:08:35;97536.28;;;13.70;92.51
70304;BME280;57712;48.752;11.348;2023-06-04T00:11:02;97530.88;;;13.67;95.58
70304;BME280;57712;48.752;11.348;2023-06-04T00:13:28;97534.28;;;13.58;88.94
70304;BME280;57712;48.752;11.348;2023-06-04T00:15:55;97526.34;;;13.60;91.05
70304;BME280;57712;48.752;11.348;2023-06-04T00:18:22;97529.53;;;13.46;94.72
70304;BME280;57712;48.752;11.348;2023-06-04T00:20:48;97527.63;;;13.43;96.32
70304;BME280;57712;48.752;11.348;2023-06-04T00:23:15;97522.69;;;13.38;95.91
70304;BME280;57712;48.752;11.348;2023-06-04T00:25:41;97527.63;;;13.43;89.43
70304;BME280;57712;48.752;11.348;2023-06-04T00:28:08;97533.25;;;13.39;91.88
70304;BME280;57712;48.752;11.348;2023-06-04T00:30:35;97530.03;;;13.28;98.74
70304;BME280;57712;48.752;11.348;2023-06-04T00:33:02;97535.97;;;13.26;98.39
70304;BME280;57712;48.752;11.348;2023-06-04T00:35:28;97533.22;;;13.26;92.40
70304;BME280;57712;48.752;11.348;2023-06-04T00:37:55;97540.25;;;13.27;100.00
70304;BME280;57712;48.752;11.348;2023-06-04T00:40:22;97540.25;;;13.27;99.20
70304;BME280;57712;48.752;11.348;2023-06-04T00:42:48;97537.50;;;13.11;100.00
70304;BME280;57712;48.752;11.348;2023-06-04T00:45:16;97536.16;;;13.19;92.83
70304;BME280;57712;48.752;11.348;2023-06-04T00:47:45;97533.56;;;13.12;100.00
70304;BME280;57712;48.752;11.348;2023-06-04T00:50:11;97536.53;;;13.05;98.34
70304;BME280;57712;48.752;11.348;2023-06-04T00:52:40;97533.78;;;13.05;99.48
70304;BME280;57712;48.752;11.348;2023-06-04T00:55:07;97536.53;;;13.05;100.00
70304;BME280;57712;48.752;11.348;2023-06-04T00:57:34;97536.41;;;13.09;97.33
70304;BME280;57712;48.752;11.348;2023-06-04T01:00:01;97527.72;;;13.10;100.00
70304;BME280;57712;48.752;11.348;2023-06-04T01:02:28;97548.72;;;13.04;100.00
70304;BME280;57712;48.752;11.348;2023-06-04T01:07:46;97544.03;;;12.88;100.00
70304;BME280;57712;48.752;11.348;2023-06-04T01:10:14;97549.03;;;12.77;100.00
70304;BME280;57712;48.752;11.348;2023-06-04T01:12:42;97552.22;;;12.76;100.00
70304;BME280;57712;48.752;11.348;2023-06-04T01:15:10;97546.72;;;12.76;100.00
70304;BME280;57712;48.752;11.348;2023-06-04T01:17:40;97548.00;;;12.71;100.00
70304;BME280;57712;48.752;11.348;2023-06-04T01:20:20;97546.88;;;12.68;100.00
70304;BME280;57712;48.752;11.348;2023-06-04T01:22:59;97545.19;;;12.58;100.00
70304;BME280;57712;48.752;11.348;2023-06-04T01:25:36;97552.31;;;12.72;100.00
70304;BME280;57712;48.752;11.348;2023-06-04T01:28:05;97547.38;;;12.80;100.00
70304;BME280;57712;48.752;11.348;2023-06-04T01:30:34;97544.31;;;12.78;100.00
70304;BME280;57712;48.752;11.348;2023-06-04T01:33:02;97549.31;;;12.66;100.00
70304;BME280;57712;48.752;11.348;2023-06-04T01:35:29;97551.28;;;12.66;100.00
70304;BME280;57712;48.752;11.348;2023-06-04T01:37:59;97553.25;;;12.65;100.00
70304;BME280;57712;48.752;11.348;2023-06-04T01:40:25;97547.44;;;12.63;100.00
70304;BME280;57712;48.752;11.348;2023-06-04T01:42:53;97550.34;;;12.56;100.00
70304;BME280;57712;48.752;11.348;2023-06-04T01:45:21;97548.38;;;12.57;100.00
70304;BME280;57712;48.752;11.348;2023-06-04T01:47:48;97549.75;;;12.49;100.00
70304;BME280;57712;48.752;11.348;2023-06-04T01:50:14;97549.31;;;12.34;100.00
70304;BME280;57712;48.752;11.348;2023-06-04T01:52:41;97553.28;;;12.33;100.00
70304;BME280;57712;48.752;11.348;2023-06-04T01:55:10;97556.47;;;12.31;100.00
70304;BME280;57712;48.752;11.348;2023-06-04T01:57:42;97559.34;;;12.24;100.00
70304;BME280;57712;48.752;11.348;2023-06-04T02:00:11;97551.03;;;12.28;100.00
70304;BME280;57712;48.752;11.348;2023-06-04T02:02:39;97560.47;;;12.27;100.00
70304;BME280;57712;48.752;11.348;2023-06-04T02:05:10;97556.34;;;12.19;100.00
70304;BME280;57712;48.752;11.348;2023-06-04T02:07:41;97556.88;;;12.13;100.00
70304;BME280;57712;48.752;11.348;2023-06-04T02:10:09;97553.78;;;12.11;100.00
70304;BME280;57712;48.752;11.348;2023-06-04T02:12:52;97550.31;;;12.07;100.00
70304;BME280;57712;48.752;11.348;2023-06-04T02:15:19;97558.03;;;11.96;100.00
70304;BME280;57712;48.752;11.348;2023-06-04T02:17:45;97556.50;;;11.95;100.00
70304;BME280;57712;48.752;11.348;2023-06-04T02:20:14;97558.75;;;12.00;100.00
70304;BME280;57712;48.752;11.348;2023-06-04T02:22:40;97555.63;;;11.98;100.00
70304;BME280;57712;48.752;11.348;2023-06-04T02:25:07;97554.16;;;11.94;100.00
70304;BME280;57712;48.752;11.348;2023-06-04T02:27:35;97558.03;;;11.96;100.00
70304;BME280;57712;48.752;11.348;2023-06-04T02:30:03;97558.13;;;11.93;100.00
70304;BME280;57712;48.752;11.348;2023-06-04T02:32:30;97553.06;;;11.91;100.00
70304;BME280;57712;48.752;11.348;2023-06-04T02:34:56;97550.81;;;11.86;100.00
70304;BME280;57712;48.752;11.348;2023-06-04T02:37:23;97546.66;;;11.78;100.00
70304;BME280;57712;48.752;11.348;2023-06-04T02:39:49;97550.56;;;11.77;100.00
70304;BME280;57712;48.752;11.348;2023-06-04T02:42:16;97558.63;;;11.68;100.00
70304;BME280;57712;48.752;11.348;2023-06-04T02:44:43;97553.16;;;11.68;100.00
70304;BME280;57712;48.752;11.348;2023-06-04T02:47:09;97557.94;;;11.64;100.00
70304;BME280;57712;48.752;11.348;2023-06-04T02:49:41;97556.69;;;11.48;100.00
70304;BME280;57712;48.752;11.348;2023-06-04T02:52:08;97556.81;;;11.41;100.00
70304;BME280;57712;48.752;11.348;2023-06-04T02:54:35;97545.72;;;11.48;100.00
70304;BME280;57712;48.752;11.348;2023-06-04T02:57:01;97562.31;;;11.41;100.00
70304;BME280;57712;48.752;11.348;2023-06-04T02:59:28;97563.44;;;11.44;100.00
70304;BME280;57712;48.752;11.348;2023-06-04T03:01:55;97556.81;;;11.41;100.00
70304;BME280;57712;48.752;11.348;2023-06-04T03:04:21;97559.34;;;11.32;100.00
70304;BME280;57712;48.752;11.348;2023-06-04T03:06:48;97564.75;;;11.36;100.00
70304;BME280;57712;48.752;11.348;2023-06-04T03:09:23;97568.34;;;11.33;100.00
70304;BME280;57712;48.752;11.348;2023-06-04T03:11:50;97568.44;;;11.29;100.00
70304;BME280;57712;48.752;11.348;2023-06-04T03:14:20;97572.03;;;11.26;100.00
70304;BME280;57712;48.752;11.348;2023-06-04T03:16:47;97569.63;;;11.28;100.00
70304;BME280;57712;48.752;11.348;2023-06-04T03:19:15;97579.41;;;11.29;100.00
70304;BME280;57712;48.752;11.348;2023-06-04T03:21:43;97572.72;;;11.30;100.00
70304;BME280;57712;48.752;11.348;2023-06-04T03:24:11;97581.16;;;11.19;100.00
70304;BME280;57712;48.752;11.348;2023-06-04T03:26:38;97587.94;;;11.11;100.00
70304;BME280;57712;48.752;11.348;2023-06-04T03:29:04;97588.25;;;11.17;100.00
70304;BME280;57712;48.752;11.348;2023-06-04T03:31:31;97591.81;;;11.14;100.00
70304;BME280;57712;48.752;11.348;2023-06-04T03:33:58;97582.03;;;11.13;100.00
70304;BME280;57712;48.752;11.348;2023-06-04T03:36:25;97587.19;;;11.11;100.00
70304;BME280;57712;48.752;11.348;2023-06-04T03:38:58;97598.66;;;11.06;100.00
70304;BME280;57712;48.752;11.348;2023-06-04T03:41:24;97591.31;;;10.99;100.00
70304;BME280;57712;48.752;11.348;2023-06-04T03:43:52;97595.31;;;10.94;100.00
70304;BME280;57712;48.752;11.348;2023-06-04T03:46:19;97590.41;;;11.06;100.00
70304;BME280;57712;48.752;11.348;2023-06-04T03:48:45;97591.13;;;11.10;100.00
70304;BME280;57712;48.752;11.348;2023-06-04T03:51:12;97594.97;;;11.12;100.00
70304;BME280;57712;48.752;11.348;2023-06-04T03:53:39;97593.25;;;11.22;100.00
70304;BME280;57712;48.752;11.348;2023-06-04T03:56:05;97593.97;;;11.26;100.00
70304;BME280;57712;48.752;11.348;2023-06-04T03:58:32;97590.03;;;11.27;100.00
70304;BME280;57712;48.752;11.348;2023-06-04T04:01:01;97600.13;;;11.30;100.00
70304;BME280;57712;48.752;11.348;2023-06-04T04:03:27;97604.44;;;11.31;100.00
70304;BME280;57712;48.752;11.348;2023-06-04T04:05:57;97596.78;;;11.42;100.00
70304;BME280;57712;48.752;11.348;2023-06-04T04:08:24;97603.16;;;11.55;100.00
70304;BME280;57712;48.752;11.348;2023-06-04T04:10:52;97602.47;;;11.71;100.00
70304;BME280;57712;48.752;11.348;2023-06-04T04:13:18;97604.44;;;11.91;100.00
70304;BME280;57712;48.752;11.348;2023-06-04T04:15:45;97605.13;;;12.31;100.00
70304;BME280;57712;48.752;11.348;2023-06-04T04:18:12;97603.66;;;12.59;100.00
70304;BME280;57712;48.752;11.348;2023-06-04T04:20:38;97611.97;;;13.04;100.00
70304;BME280;57712;48.752;11.348;2023-06-04T04:23:05;97612.41;;;13.48;100.00
70304;BME280;57712;48.752;11.348;2023-06-04T04:25:32;97610.41;;;13.77;100.00
70304;BME280;57712;48.752;11.348;2023-06-04T04:27:59;97607.16;;;14.33;100.00
70304;BME280;57712;48.752;11.348;2023-06-04T04:30:28;97619.59;;;14.76;100.00
70304;BME280;57712;48.752;11.348;2023-06-04T04:32:55;97617.94;;;15.26;100.00
70304;BME280;57712;48.752;11.348;2023-06-04T04:35:23;97613.97;;;15.27;100.00
70304;BME280;57712;48.752;11.348;2023-06-04T04:37:50;97619.84;;;15.16;93.94
70304;BME280;57712;48.752;11.348;2023-06-04T04:40:16;97623.97;;;15.12;92.58
70304;BME280;57712;48.752;11.348;2023-06-04T04:42:43;97622.09;;;15.87;96.41
70304;BME280;57712;48.752;11.348;2023-06-04T04:45:10;97624.94;;;15.96;93.64
70304;BME280;57712;48.752;11.348;2023-06-04T04:47:37;97621.72;;;15.98;92.30
70304;BME280;57712;48.752;11.348;2023-06-04T04:50:05;97620.03;;;16.00;96.58
70304;BME280;57712;48.752;11.348;2023-06-04T04:52:31;97617.06;;;16.16;95.32
70304;BME280;57712;48.752;11.348;2023-06-04T04:54:58;97627.91;;;16.42;90.29
70304;BME280;57712;48.752;11.348;2023-06-04T04:57:24;97625.38;;;16.66;93.60
70304;BME280;57712;48.752;11.348;2023-06-04T04:59:51;97634.13;;;16.64;92.94
70304;BME280;57712;48.752;11.348;2023-06-04T05:02:18;97626.50;;;16.78;84.09
70304;BME280;57712;48.752;11.348;2023-06-04T05:04:45;97626.88;;;17.07;85.89
70304;BME280;57712;48.752;11.348;2023-06-04T05:07:11;97636.78;;;17.36;86.71
70304;BME280;57712;48.752;11.348;2023-06-04T05:09:38;97640.75;;;17.25;74.03
70304;BME280;57712;48.752;11.348;2023-06-04T05:12:04;97645.72;;;17.76;75.26
70304;BME280;57712;48.752;11.348;2023-06-04T05:14:32;97649.72;;;17.94;75.49
70304;BME280;57712;48.752;11.348;2023-06-04T05:16:59;97647.72;;;17.76;79.14
70304;BME280;57712;48.752;11.348;2023-06-04T05:19:25;97648.16;;;17.56;79.61
70304;BME280;57712;48.752;11.348;2023-06-04T05:21:52;97648.41;;;18.13;69.91
70304;BME280;57712;48.752;11.348;2023-06-04T05:24:19;97647.53;;;17.98;71.74
70304;BME280;57712;48.752;11.348;2023-06-04T05:26:46;97657.69;;;18.01;76.60
70304;BME280;57712;48.752;11.348;2023-06-04T05:29:14;97664.03;;;17.83;77.17
70304;BME280;57712;48.752;11.348;2023-06-04T05:31:42;97656.09;;;18.27;71.99
70304;BME280;57712;48.752;11.348;2023-06-04T05:34:09;97669.09;;;18.54;72.58
70304;BME280;57712;48.752;11.348;2023-06-04T05:36:35;97661.91;;;18.48;75.16
70304;BME280;57712;48.752;11.348;2023-06-04T05:39:02;97662.53;;;18.33;72.29
70304;BME280;57712;48.752;11.348;2023-06-04T05:41:29;97669.94;;;18.36;66.33
70304;BME280;57712;48.752;11.348;2023-06-04T05:43:56;97672.78;;;19.02;65.73
70304;BME280;57712;48.752;11.348;2023-06-04T05:46:22;97663.19;;;18.19;67.88
70304;BME280;57712;48.752;11.348;2023-06-04T05:48:49;97672.09;;;18.84;70.78
70304;BME280;57712;48.752;11.348;2023-06-04T05:51:17;97667.75;;;18.92;69.76
70304;BME280;57712;48.752;11.348;2023-06-04T05:53:44;97680.63;;;18.62;67.95
70304;BME280;57712;48.752;11.348;2023-06-04T05:56:11;97687.28;;;18.64;82.90
70304;BME280;57712;48.752;11.348;2023-06-04T05:58:38;97682.94;;;19.06;67.71
70304;BME280;57712;48.752;11.348;2023-06-04T06:01:04;97680.31;;;18.78;72.52
70304;BME280;57712;48.752;11.348;2023-06-04T06:03:31;97678.66;;;19.28;65.51
70304;BME280;57712;48.752;11.348;2023-06-04T06:05:58;97683.44;;;18.95;64.72
70304;BME280;57712;48.752;11.348;2023-06-04T06:08:26;97681.50;;;18.86;66.58
70304;BME280;57712;48.752;11.348;2023-06-04T06:10:53;97685.03;;;18.44;58.66
70304;BME280;57712;48.752;11.348;2023-06-04T06:13:20;97689.91;;;18.59;62.02
70304;BME280;57712;48.752;11.348;2023-06-04T06:15:46;97686.84;;;19.23;63.29
70304;BME280;57712;48.752;11.348;2023-06-04T06:18:16;97684.00;;;19.32;67.35
70304;BME280;57712;48.752;11.348;2023-06-04T06:20:43;97692.06;;;19.30;58.76
70304;BME280;57712;48.752;11.348;2023-06-04T06:23:09;97686.13;;;19.37;58.25
70304;BME280;57712;48.752;11.348;2023-06-04T06:25:36;97694.25;;;19.74;64.27
70304;BME280;57712;48.752;11.348;2023-06-04T06:28:02;97698.81;;;19.62;66.17
70304;BME280;57712;48.752;11.348;2023-06-04T06:30:29;97690.28;;;19.66;64.90
70304;BME280;57712;48.752;11.348;2023-06-04T06:32:56;97692.44;;;19.85;63.33
70304;BME280;57712;48.752;11.348;2023-06-04T06:35:23;97695.16;;;19.47;59.09
70304;BME280;57712;48.752;11.348;2023-06-04T06:37:49;97697.88;;;19.80;61.63
70304;BME280;57712;48.752;11.348;2023-06-04T06:40:16;97705.72;;;20.05;57.42
70304;BME280;57712;48.752;11.348;2023-06-04T06:42:48;97699.31;;;19.27;56.14
70304;BME280;57712;48.752;11.348;2023-06-04T06:45:15;97701.91;;;19.55;56.82
70304;BME280;57712;48.752;11.348;2023-06-04T06:47:43;97716.91;;;19.57;58.93
70304;BME280;57712;48.752;11.348;2023-06-04T06:50:10;97713.03;;;19.79;59.23
70304;BME280;57712;48.752;11.348;2023-06-04T06:52:37;97713.91;;;19.85;54.24
70304;BME280;57712;48.752;11.348;2023-06-04T06:55:05;97710.72;;;19.53;53.74
70304;BME280;57712;48.752;11.348;2023-06-04T06:57:32;97713.34;;;19.33;52.05
70304;BME280;57712;48.752;11.348;2023-06-04T06:59:59;97706.63;;;19.16;52.49
70304;BME280;57712;48.752;11.348;2023-06-04T07:02:27;97714.38;;;19.12;52.35
70304;BME280;57712;48.752;11.348;2023-06-04T07:04:53;97713.66;;;19.26;55.58
70304;BME280;57712;48.752;11.348;2023-06-04T07:07:20;97716.81;;;19.19;52.37
70304;BME280;57712;48.752;11.348;2023-06-04T07:09:46;97717.59;;;19.43;55.83
70304;BME280;57712;48.752;11.348;2023-06-04T07:12:13;97714.75;;;19.52;54.90
70304;BME280;57712;48.752;11.348;2023-06-04T07:14:40;97714.75;;;19.28;54.23
70304;BME280;57712;48.752;11.348;2023-06-04T07:17:06;97708.97;;;19.41;52.94
70304;BME280;57712;48.752;11.348;2023-06-04T07:19:34;97709.41;;;19.16;53.12
70304;BME280;57712;48.752;11.348;2023-06-04T07:22:00;97705.53;;;19.46;54.09
70304;BME280;57712;48.752;11.348;2023-06-04T07:24:27;97715.22;;;19.75;54.17
70304;BME280;57712;48.752;11.348;2023-06-04T07:26:53;97707.91;;;20.01;53.42
70304;BME280;57712;48.752;11.348;2023-06-04T07:29:20;97705.28;;;19.35;51.56
70304;BME280;57712;48.752;11.348;2023-06-04T07:31:47;97701.88;;;19.40;55.53
70304;BME280;57712;48.752;11.348;2023-06-04T07:34:14;97704.78;;;19.70;53.81
70304;BME280;57712;48.752;11.348;2023-06-04T07:36:41;97706.97;;;20.04;56.39
70304;BME280;57712;48.752;11.348;2023-06-04T07:39:07;97701.91;;;20.47;54.43
70304;BME280;57712;48.752;11.348;2023-06-04T07:41:34;97702.06;;;20.29;52.36
70304;BME280;57712;48.752;11.348;2023-06-04T07:44:01;97699.22;;;20.23;50.50
70304;BME280;57712;48.752;11.348;2023-06-04T07:46:27;97699.81;;;20.57;49.71
70304;BME280;57712;48.752;11.348;2023-06-04T07:48:54;97697.88;;;20.48;50.00
70304;BME280;57712;48.752;11.348;2023-06-04T07:51:21;97699.66;;;20.81;51.20
70304;BME280;57712;48.752;11.348;2023-06-04T07:53:49;97698.63;;;21.13;50.79
70304;BME280;57712;48.752;11.348;2023-06-04T07:56:16;97690.19;;;21.83;46.47
70304;BME280;57712;48.752;11.348;2023-06-04T07:58:43;97698.44;;;22.18;48.48
70304;BME280;57712;48.752;11.348;2023-06-04T08:01:10;97697.69;;;22.50;46.19
70304;BME280;57712;48.752;11.348;2023-06-04T08:03:37;97694.22;;;22.29;47.19
70304;BME280;57712;48.752;11.348;2023-06-04T08:06:04;97690.69;;;22.60;46.52
70304;BME280;57712;48.752;11.348;2023-06-04T08:08:30;97696.44;;;22.51;44.99
70304;BME280;57712;48.752;11.348;2023-06-04T08:10:59;97698.13;;;22.11;48.30
70304;BME280;57712;48.752;11.348;2023-06-04T08:13:26;97700.41;;;22.70;47.01
70304;BME280;57712;48.752;11.348;2023-06-04T08:15:52;97695.75;;;22.87;46.21
70304;BME280;57712;48.752;11.348;2023-06-04T08:18:19;97695.31;;;22.94;46.48
70304;BME280;57712;48.752;11.348;2023-06-04T08:20:46;97694.81;;;22.96;45.45
70304;BME280;57712;48.752;11.348;2023-06-04T08:23:13;97694.59;;;23.05;45.50
70304;BME280;57712;48.752;11.348;2023-06-04T08:25:39;97703.38;;;22.61;46.27
70304;BME280;57712;48.752;11.348;2023-06-04T08:28:06;97695.19;;;22.52;44.53
70304;BME280;57712;48.752;11.348;2023-06-04T08:30:35;97692.41;;;22.26;47.35
70304;BME280;57712;48.752;11.348;2023-06-04T08:33:02;97689.22;;;22.38;47.61
70304;BME280;57712;48.752;11.348;2023-06-04T08:35:29;97698.88;;;22.37;49.18
70304;BME280;57712;48.752;11.348;2023-06-04T08:37:55;97700.84;;;22.31;45.36
70304;BME280;57712;48.752;11.348;2023-06-04T08:40:22;97693.91;;;22.01;47.46
70304;BME280;57712;48.752;11.348;2023-06-04T08:42:50;97689.59;;;22.20;47.90
70304;BME280;57712;48.752;11.348;2023-06-04T08:45:17;97694.34;;;21.94;46.99
70304;BME280;57712;48.752;11.348;2023-06-04T08:47:49;97692.41;;;22.00;47.55
70304;BME280;57712;48.752;11.348;2023-06-04T08:50:21;97698.44;;;22.44;49.65
70304;BME280;57712;48.752;11.348;2023-06-04T08:52:53;97694.81;;;22.38;47.03
70304;BME280;57712;48.752;11.348;2023-06-04T08:55:23;97698.16;;;22.42;51.07
70304;BME280;57712;48.752;11.348;2023-06-04T08:57:50;97690.22;;;22.35;46.97
70304;BME280;57712;48.752;11.348;2023-06-04T09:00:20;97697.31;;;22.62;52.20
70304;BME280;57712;48.752;11.348;2023-06-04T09:02:47;97692.84;;;22.44;47.37
70304;BME280;57712;48.752;11.348;2023-06-04T09:05:23;97693.38;;;22.48;48.28
70304;BME280;57712;48.752;11.348;2023-06-04T09:07:53;97692.09;;;22.75;47.46
70304;BME280;57712;48.752;11.348;2023-06-04T09:10:24;97696.84;;;22.69;50.96
70304;BME280;57712;48.752;11.348;2023-06-04T09:12:53;97693.00;;;22.93;46.85
70304;BME280;57712;48.752;11.348;2023-06-04T09:15:21;97696.81;;;22.64;46.19
70304;BME280;57712;48.752;11.348;2023-06-04T09:17:47;97694.91;;;22.50;49.57
70304;BME280;57712;48.752;11.348;2023-06-04T09:20:21;97688.22;;;22.67;44.68
70304;BME280;57712;48.752;11.348;2023-06-04T09:22:48;97696.66;;;22.73;45.45
70304;BME280;57712;48.752;11.348;2023-06-04T09:25:27;97691.59;;;22.77;44.86
70304;BME280;57712;48.752;11.348;2023-06-04T09:27:54;97688.78;;;22.77;43.65
70304;BME280;57712;48.752;11.348;2023-06-04T09:30:23;97689.28;;;23.07;43.78
70304;BME280;57712;48.752;11.348;2023-06-04T09:32:50;97689.16;;;23.27;45.18
70304;BME280;57712;48.752;11.348;2023-06-04T09:35:18;97688.09;;;23.68;47.26
70304;BME280;57712;48.752;11.348;2023-06-04T09:37:55;97681.75;;;23.73;44.43
70304;BME280;57712;48.752;11.348;2023-06-04T09:40:23;97690.53;;;23.49;44.96
70304;BME280;57712;48.752;11.348;2023-06-04T09:42:51;97689.94;;;23.93;43.89
70304;BME280;57712;48.752;11.348;2023-06-04T09:45:29;97683.47;;;23.65;44.17
70304;BME280;57712;48.752;11.348;2023-06-04T09:47:57;97682.03;;;23.86;39.23
70304;BME280;57712;48.752;11.348;2023-06-04T09:50:34;97683.59;;;23.93;40.20
70304;BME280;57712;48.752;11.348;2023-06-04T09:53:20;97687.19;;;24.15;41.21
70304;BME280;57712;48.752;11.348;2023-06-04T09:55:59;97684.97;;;24.42;39.82
70304;BME280;57712;48.752;11.348;2023-06-04T09:58:27;97682.56;;;23.96;40.04
70304;BME280;57712;48.752;11.348;2023-06-04T10:00:56;97677.59;;;24.39;39.57
70304;BME280;57712;48.752;11.348;2023-06-04T10:03:46;97673.47;;;25.18;40.51
70304;BME280;57712;48.752;11.348;2023-06-04T10:06:14;97682.03;;;25.54;40.98
70304;BME280;57712;48.752;11.348;2023-06-04T10:08:42;97672.03;;;26.16;36.90
70304;BME280;57712;48.752;11.348;2023-06-04T10:11:11;97668.47;;;25.75;38.49
70304;BME280;57712;48.752;11.348;2023-06-04T10:13:48;97677.75;;;26.35;37.15
70304;BME280;57712;48.752;11.348;2023-06-04T10:16:16;97675.53;;;26.28;37.59
70304;BME280;57712;48.752;11.348;2023-06-04T10:18:59;97676.16;;;27.11;38.24
70304;BME280;57712;48.752;11.348;2023-06-04T10:21:26;97686.09;;;27.37;38.15
70304;BME280;57712;48.752;11.348;2023-06-04T10:23:54;97677.63;;;27.61;36.07
70304;BME280;57712;48.752;11.348;2023-06-04T10:26:21;97680.06;;;26.72;35.76
70304;BME280;57712;48.752;11.348;2023-06-04T10:28:48;97672.34;;;26.79;35.34
70304;BME280;57712;48.752;11.348;2023-06-04T10:31:15;97679.56;;;26.98;33.31
70304;BME280;57712;48.752;11.348;2023-06-04T10:33:42;97674.44;;;27.51;33.65
70304;BME280;57712;48.752;11.348;2023-06-04T10:36:20;97672.69;;;26.99;33.46
70304;BME280;57712;48.752;11.348;2023-06-04T10:38:48;97668.59;;;27.25;34.94
70304;BME280;57712;48.752;11.348;2023-06-04T10:41:18;97663.63;;;26.82;34.82
70304;BME280;57712;48.752;11.348;2023-06-04T10:43:46;97667.53;;;27.52;33.51
70304;BME280;57712;48.752;11.348;2023-06-04T10:46:20;97671.53;;;27.57;32.26
70304;BME280;57712;48.752;11.348;2023-06-04T10:48:51;97670.22;;;28.39;34.60
70304;BME280;57712;48.752;11.348;2023-06-04T10:51:32;97665.75;;;27.74;33.76
70304;BME280;57712;48.752;11.348;2023-06-04T10:54:00;97668.41;;;28.04;35.66
70304;BME280;57712;48.752;11.348;2023-06-04T10:56:32;97665.34;;;28.39;35.04
70304;BME280;57712;48.752;11.348;2023-06-04T10:58:59;97667.69;;;28.99;40.60
70304;BME280;57712;48.752;11.348;2023-06-04T11:01:27;97669.59;;;28.46;32.08
70304;BME280;57712;48.752;11.348;2023-06-04T11:03:58;97661.72;;;28.90;33.58
70304;BME280;57712;48.752;11.348;2023-06-04T11:06:25;97668.84;;;28.45;34.72
70304;BME280;57712;48.752;11.348;2023-06-04T11:09:03;97656.66;;;28.83;31.50
70304;BME280;57712;48.752;11.348;2023-06-04T11:11:31;97656.19;;;28.65;34.13
70304;BME280;57712;48.752;11.348;2023-06-04T11:14:09;97664.53;;;28.90;31.15
70304;BME280;57712;48.752;11.348;2023-06-04T11:16:35;97656.34;;;28.03;31.79
70304;BME280;57712;48.752;11.348;2023-06-04T11:19:02;97657.38;;;28.57;35.99
70304;BME280;57712;48.752;11.348;2023-06-04T11:21:29;97652.97;;;28.24;37.01
70304;BME280;57712;48.752;11.348;2023-06-04T11:24:00;97659.00;;;28.65;33.34
70304;BME280;57712;48.752;11.348;2023-06-04T11:26:34;97658.31;;;28.46;34.18
70304;BME280;57712;48.752;11.348;2023-06-04T11:29:07;97658.25;;;26.84;33.49
70304;BME280;57712;48.752;11.348;2023-06-04T11:31:44;97656.66;;;28.18;33.72
70304;BME280;57712;48.752;11.348;2023-06-04T11:34:28;97648.53;;;27.77;33.19
70304;BME280;57712;48.752;11.348;2023-06-04T11:36:55;97663.66;;;28.31;35.83
70304;BME280;57712;48.752;11.348;2023-06-04T11:39:22;97642.63;;;27.56;35.13
70304;BME280;57712;48.752;11.348;2023-06-04T11:41:50;97649.34;;;28.10;34.69
70304;BME280;57712;48.752;11.348;2023-06-04T11:44:20;97655.91;;;28.37;35.37
70304;BME280;57712;48.752;11.348;2023-06-04T11:46:47;97647.06;;;28.46;34.20
70304;BME280;57712;48.752;11.348;2023-06-04T11:49:18;97646.31;;;27.89;40.56
70304;BME280;57712;48.752;11.348;2023-06-04T11:51:50;97640.53;;;27.63;39.00
70304;BME280;57712;48.752;11.348;2023-06-04T11:54:18;97636.72;;;28.16;32.07
70304;BME280;57712;48.752;11.348;2023-06-04T11:56:48;97643.13;;;28.17;31.96
70304;BME280;57712;48.752;11.348;2023-06-04T11:59:16;97638.34;;;27.31;34.41
70304;BME280;57712;48.752;11.348;2023-06-04T12:01:44;97634.25;;;27.32;38.39
70304;BME280;57712;48.752;11.348;2023-06-04T12:04:15;97633.13;;;26.92;33.59
70304;BME280;57712;48.752;11.348;2023-06-04T12:06:56;97632.44;;;27.10;34.62
70304;BME280;57712;48.752;11.348;2023-06-04T12:09:25;97630.50;;;26.99;37.69
70304;BME280;57712;48.752;11.348;2023-06-04T12:11:59;97619.03;;;27.22;30.55
70304;BME280;57712;48.752;11.348;2023-06-04T12:14:29;97621.63;;;27.57;35.92
70304;BME280;57712;48.752;11.348;2023-06-04T12:17:05;97618.72;;;28.19;34.89
70304;BME280;57712;48.752;11.348;2023-06-04T12:19:34;97624.56;;;27.89;30.48
70304;BME280;57712;48.752;11.348;2023-06-04T12:22:11;97620.06;;;28.00;31.45
70304;BME280;57712;48.752;11.348;2023-06-04T12:27:15;97622.00;;;27.73;34.23
70304;BME280;57712;48.752;11.348;2023-06-04T12:29:42;97624.50;;;27.33;33.83
70304;BME280;57712;48.752;11.348;2023-06-04T12:32:09;97623.94;;;26.91;30.20
70304;BME280;57712;48.752;11.348;2023-06-04T12:34:40;97620.50;;;27.47;30.72
70304;BME280;57712;48.752;11.348;2023-06-04T12:37:07;97616.63;;;28.07;32.33
70304;BME280;57712;48.752;11.348;2023-06-04T12:39:37;97613.56;;;27.05;30.94
70304;BME280;57712;48.752;11.348;2023-06-04T12:42:07;97617.94;;;26.76;32.18
70304;BME280;57712;48.752;11.348;2023-06-04T12:44:40;97616.59;;;27.31;33.86
70304;BME280;57712;48.752;11.348;2023-06-04T12:47:08;97609.47;;;27.30;32.02
70304;BME280;57712;48.752;11.348;2023-06-04T12:49:35;97608.03;;;27.18;31.66
70304;BME280;57712;48.752;11.348;2023-06-04T12:52:02;97613.41;;;27.22;35.09
70304;BME280;57712;48.752;11.348;2023-06-04T12:54:29;97608.47;;;26.79;36.06
70304;BME280;57712;48.752;11.348;2023-06-04T12:56:57;97599.50;;;26.81;33.53
70304;BME280;57712;48.752;11.348;2023-06-04T12:59:25;97605.75;;;26.68;36.62